sensor_id;sensor_type;location;lat;lon;timestamp;P1;durP1;ratioP1;P2;durP2;ratioP2
20365;SDS011;10341;49.894;8.822;2023-11-21T00:03:34;6.63;;;2.00;;
20365;SDS011;10341;49.894;8.822;2023-11-21T00:08:53;4.55;;;2.03;;
20365;SDS011;10341;49.894;8.822;2023-11-21T00:14:12;3.27;;;1.90;;
20365;SDS011;10341;49.894;8.822;2023-11-21T00:19:34;4.07;;;1.63;;
20365;SDS011;10341;49.894;8.822;2023-11-21T00:24:53;3.95;;;2.20;;
20365;SDS011;10341;49.894;8.822;2023-11-21T00:30:13;2.38;;;1.95;;
20365;SDS011;10341;49.894;8.822;2023-11-21T00:35:32;4.18;;;1.85;;
20365;SDS011;10341;49.894;8.822;2023-11-21T00:40:51;3.22;;;1.80;;
20365;SDS011;10341;49.894;8.822;2023-11-21T00:46:11;5.03;;;2.03;;
20365;SDS011;10341;49.894;8.822;2023-11-21T00:51:30;5.60;;;2.20;;
20365;SDS011;10341;49.894;8.822;2023-11-21T00:56:52;2.85;;;1.98;;
20365;SDS011;10341;49.894;8.822;2023-11-21T01:02:11;2.53;;;1.70;;
20365;SDS011;10341;49.894;8.822;2023-11-21T01:07:30;3.85;;;1.90;;
20365;SDS011;10341;49.894;8.822;2023-11-21T01:12:49;4.17;;;2.17;;
20365;SDS011;10341;49.894;8.822;2023-11-21T01:18:09;3.07;;;2.00;;
20365;SDS011;10341;49.894;8.822;2023-11-21T01:23:28;5.60;;;2.73;;
20365;SDS011;10341;49.894;8.822;2023-11-21T01:28:47;6.47;;;2.23;;
20365;SDS011;10341;49.894;8.822;2023-11-21T01:34:07;3.47;;;1.90;;
20365;SDS011;10341;49.894;8.822;2023-11-21T01:39:27;3.85;;;1.95;;
20365;SDS011;10341;49.894;8.822;2023-11-21T01:44:47;4.75;;;2.20;;
20365;SDS011;10341;49.894;8.822;2023-11-21T01:55:26;4.57;;;2.10;;
20365;SDS011;10341;49.894;8.822;2023-11-21T02:00:46;4.13;;;1.30;;
20365;SDS011;10341;49.894;8.822;2023-11-21T02:06:09;1.90;;;1.15;;
20365;SDS011;10341;49.894;8.822;2023-11-21T02:11:28;4.37;;;1.60;;
20365;SDS011;10341;49.894;8.822;2023-11-21T02:16:51;1.73;;;1.35;;
20365;SDS011;10341;49.894;8.822;2023-11-21T02:22:10;2.83;;;1.27;;
20365;SDS011;10341;49.894;8.822;2023-11-21T02:27:31;2.05;;;1.20;;
20365;SDS011;10341;49.894;8.822;2023-11-21T02:32:51;2.53;;;1.20;;
20365;SDS011;10341;49.894;8.822;2023-11-21T02:38:13;2.20;;;1.20;;
20365;SDS011;10341;49.894;8.822;2023-11-21T02:43:32;1.80;;;0.90;;
20365;SDS011;10341;49.894;8.822;2023-11-21T02:54:13;3.23;;;1.47;;
20365;SDS011;10341;49.894;8.822;2023-11-21T02:59:32;2.83;;;1.55;;
20365;SDS011;10341;49.894;8.822;2023-11-21T03:04:51;2.70;;;1.53;;
20365;SDS011;10341;49.894;8.822;2023-11-21T03:10:11;2.88;;;1.73;;
20365;SDS011;10341;49.894;8.822;2023-11-21T03:15:30;1.67;;;1.43;;
20365;SDS011;10341;49.894;8.822;2023-11-21T03:20:54;3.17;;;1.80;;
20365;SDS011;10341;49.894;8.822;2023-11-21T03:26:13;4.40;;;1.83;;
20365;SDS011;10341;49.894;8.822;2023-11-21T03:31:32;1.50;;;1.40;;
20365;SDS011;10341;49.894;8.822;2023-11-21T03:36:51;1.65;;;1.40;;
20365;SDS011;10341;49.894;8.822;2023-11-21T03:42:11;1.50;;;1.40;;
20365;SDS011;10341;49.894;8.822;2023-11-21T03:47:31;3.15;;;1.83;;
20365;SDS011;10341;49.894;8.822;2023-11-21T03:52:50;3.53;;;2.43;;
20365;SDS011;10341;49.894;8.822;2023-11-21T03:58:09;2.27;;;1.87;;
20365;SDS011;10341;49.894;8.822;2023-11-21T04:03:28;3.93;;;2.20;;
20365;SDS011;10341;49.894;8.822;2023-11-21T04:08:48;6.50;;;2.70;;
20365;SDS011;10341;49.894;8.822;2023-11-21T04:14:07;4.93;;;2.35;;
20365;SDS011;10341;49.894;8.822;2023-11-21T04:24:46;2.20;;;1.67;;
20365;SDS011;10341;49.894;8.822;2023-11-21T04:30:06;2.50;;;1.30;;
20365;SDS011;10341;49.894;8.822;2023-11-21T04:35:25;2.97;;;1.67;;
20365;SDS011;10341;49.894;8.822;2023-11-21T04:40:44;2.67;;;1.77;;
20365;SDS011;10341;49.894;8.822;2023-11-21T04:46:05;3.38;;;1.75;;
20365;SDS011;10341;49.894;8.822;2023-11-21T04:51:25;2.20;;;1.15;;
20365;SDS011;10341;49.894;8.822;2023-11-21T04:56:45;1.48;;;1.20;;
20365;SDS011;10341;49.894;8.822;2023-11-21T05:02:04;1.30;;;1.00;;
20365;SDS011;10341;49.894;8.822;2023-11-21T05:07:24;2.40;;;1.15;;
20365;SDS011;10341;49.894;8.822;2023-11-21T05:12:47;2.33;;;1.60;;
20365;SDS011;10341;49.894;8.822;2023-11-21T05:18:08;3.25;;;2.00;;
20365;SDS011;10341;49.894;8.822;2023-11-21T05:28:48;2.95;;;1.80;;
20365;SDS011;10341;49.894;8.822;2023-11-21T05:34:07;1.50;;;1.38;;
20365;SDS011;10341;49.894;8.822;2023-11-21T05:39:25;2.20;;;1.58;;
20365;SDS011;10341;49.894;8.822;2023-11-21T05:44:46;1.83;;;1.50;;
20365;SDS011;10341;49.894;8.822;2023-11-21T05:50:05;1.80;;;1.60;;
20365;SDS011;10341;49.894;8.822;2023-11-21T05:55:28;4.43;;;2.25;;
20365;SDS011;10341;49.894;8.822;2023-11-21T06:00:47;3.00;;;2.03;;
20365;SDS011;10341;49.894;8.822;2023-11-21T06:06:06;5.23;;;1.77;;
20365;SDS011;10341;49.894;8.822;2023-11-21T06:11:26;3.22;;;1.98;;
20365;SDS011;10341;49.894;8.822;2023-11-21T06:16:45;5.65;;;3.20;;
20365;SDS011;10341;49.894;8.822;2023-11-21T06:22:04;3.50;;;2.60;;
20365;SDS011;10341;49.894;8.822;2023-11-21T06:27:23;2.50;;;2.03;;
20365;SDS011;10341;49.894;8.822;2023-11-21T06:32:43;2.78;;;2.20;;
20365;SDS011;10341;49.894;8.822;2023-11-21T06:38:05;3.55;;;2.60;;
20365;SDS011;10341;49.894;8.822;2023-11-21T06:43:25;4.32;;;2.72;;
20365;SDS011;10341;49.894;8.822;2023-11-21T06:48:45;2.85;;;2.33;;
20365;SDS011;10341;49.894;8.822;2023-11-21T06:54:05;3.75;;;2.58;;
20365;SDS011;10341;49.894;8.822;2023-11-21T06:59:25;2.53;;;1.90;;
20365;SDS011;10341;49.894;8.822;2023-11-21T07:04:45;2.47;;;2.00;;
20365;SDS011;10341;49.894;8.822;2023-11-21T07:10:05;5.90;;;3.10;;
20365;SDS011;10341;49.894;8.822;2023-11-21T07:15:24;4.28;;;3.00;;
20365;SDS011;10341;49.894;8.822;2023-11-21T07:20:44;3.80;;;2.40;;
20365;SDS011;10341;49.894;8.822;2023-11-21T07:26:04;4.00;;;2.72;;
20365;SDS011;10341;49.894;8.822;2023-11-21T07:31:28;4.25;;;2.60;;
20365;SDS011;10341;49.894;8.822;2023-11-21T07:42:07;5.22;;;3.65;;
20365;SDS011;10341;49.894;8.822;2023-11-21T07:47:26;9.10;;;5.20;;
20365;SDS011;10341;49.894;8.822;2023-11-21T07:52:46;11.70;;;5.00;;
20365;SDS011;10341;49.894;8.822;2023-11-21T07:58:05;11.83;;;5.87;;
20365;SDS011;10341;49.894;8.822;2023-11-21T08:03:24;13.73;;;5.70;;
20365;SDS011;10341;49.894;8.822;2023-11-21T08:08:45;11.95;;;6.40;;
20365;SDS011;10341;49.894;8.822;2023-11-21T08:14:05;12.48;;;6.30;;
20365;SDS011;10341;49.894;8.822;2023-11-21T08:19:24;8.18;;;4.82;;
20365;SDS011;10341;49.894;8.822;2023-11-21T08:24:44;10.20;;;6.15;;
20365;SDS011;10341;49.894;8.822;2023-11-21T08:30:05;12.32;;;6.05;;
20365;SDS011;10341;49.894;8.822;2023-11-21T08:35:26;8.77;;;4.90;;
20365;SDS011;10341;49.894;8.822;2023-11-21T08:40:45;12.13;;;6.80;;
20365;SDS011;10341;49.894;8.822;2023-11-21T08:46:05;9.97;;;5.27;;
20365;SDS011;10341;49.894;8.822;2023-11-21T08:51:25;11.80;;;5.65;;
20365;SDS011;10341;49.894;8.822;2023-11-21T08:56:44;10.07;;;5.60;;
20365;SDS011;10341;49.894;8.822;2023-11-21T09:02:05;14.23;;;7.07;;
20365;SDS011;10341;49.894;8.822;2023-11-21T09:07:24;12.38;;;6.65;;
20365;SDS011;10341;49.894;8.822;2023-11-21T09:12:44;10.30;;;5.82;;
20365;SDS011;10341;49.894;8.822;2023-11-21T09:18:04;10.75;;;5.35;;
20365;SDS011;10341;49.894;8.822;2023-11-21T09:23:24;10.75;;;5.95;;
20365;SDS011;10341;49.894;8.822;2023-11-21T09:28:43;7.90;;;4.88;;
20365;SDS011;10341;49.894;8.822;2023-11-21T09:34:06;8.23;;;4.95;;
20365;SDS011;10341;49.894;8.822;2023-11-21T09:39:24;7.40;;;4.15;;
20365;SDS011;10341;49.894;8.822;2023-11-21T09:44:53;9.60;;;4.13;;
20365;SDS011;10341;49.894;8.822;2023-11-21T09:50:20;6.03;;;3.90;;
20365;SDS011;10341;49.894;8.822;2023-11-21T09:55:43;5.45;;;3.40;;
20365;SDS011;10341;49.894;8.822;2023-11-21T10:06:22;5.63;;;3.53;;
20365;SDS011;10341;49.894;8.822;2023-11-21T10:11:45;7.18;;;3.70;;
20365;SDS011;10341;49.894;8.822;2023-11-21T10:17:06;5.25;;;3.08;;
20365;SDS011;10341;49.894;8.822;2023-11-21T10:22:27;5.85;;;3.10;;
20365;SDS011;10341;49.894;8.822;2023-11-21T10:27:48;6.22;;;3.05;;
20365;SDS011;10341;49.894;8.822;2023-11-21T10:33:10;7.53;;;3.13;;
20365;SDS011;10341;49.894;8.822;2023-11-21T10:38:33;7.00;;;3.17;;
20365;SDS011;10341;49.894;8.822;2023-11-21T10:44:04;10.00;;;4.55;;
20365;SDS011;10341;49.894;8.822;2023-11-21T10:49:25;6.65;;;2.90;;
20365;SDS011;10341;49.894;8.822;2023-11-21T10:54:45;4.43;;;2.90;;
20365;SDS011;10341;49.894;8.822;2023-11-21T11:00:06;4.13;;;2.85;;
20365;SDS011;10341;49.894;8.822;2023-11-21T11:05:27;4.75;;;3.15;;
20365;SDS011;10341;49.894;8.822;2023-11-21T11:10:54;4.68;;;3.00;;
20365;SDS011;10341;49.894;8.822;2023-11-21T11:16:14;6.20;;;2.92;;
20365;SDS011;10341;49.894;8.822;2023-11-21T11:26:57;5.47;;;3.03;;
20365;SDS011;10341;49.894;8.822;2023-11-21T11:32:47;4.13;;;2.65;;
20365;SDS011;10341;49.894;8.822;2023-11-21T11:38:33;4.20;;;2.20;;
20365;SDS011;10341;49.894;8.822;2023-11-21T11:43:54;3.88;;;2.13;;
20365;SDS011;10341;49.894;8.822;2023-11-21T11:49:23;3.95;;;1.60;;
20365;SDS011;10341;49.894;8.822;2023-11-21T11:54:44;4.85;;;1.98;;
20365;SDS011;10341;49.894;8.822;2023-11-21T12:05:38;4.63;;;1.85;;
20365;SDS011;10341;49.894;8.822;2023-11-21T12:11:01;3.72;;;1.75;;
20365;SDS011;10341;49.894;8.822;2023-11-21T12:16:20;4.30;;;2.17;;
20365;SDS011;10341;49.894;8.822;2023-11-21T12:21:42;2.85;;;1.92;;
20365;SDS011;10341;49.894;8.822;2023-11-21T12:27:02;4.07;;;2.10;;
20365;SDS011;10341;49.894;8.822;2023-11-21T12:32:22;6.57;;;2.30;;
20365;SDS011;10341;49.894;8.822;2023-11-21T12:37:41;4.65;;;2.47;;
20365;SDS011;10341;49.894;8.822;2023-11-21T12:43:01;2.90;;;2.00;;
20365;SDS011;10341;49.894;8.822;2023-11-21T12:48:22;4.15;;;2.15;;
20365;SDS011;10341;49.894;8.822;2023-11-21T12:53:43;5.72;;;2.45;;
20365;SDS011;10341;49.894;8.822;2023-11-21T12:59:03;4.88;;;2.63;;
20365;SDS011;10341;49.894;8.822;2023-11-21T13:04:29;7.50;;;2.67;;
20365;SDS011;10341;49.894;8.822;2023-11-21T13:09:53;7.97;;;2.85;;
20365;SDS011;10341;49.894;8.822;2023-11-21T13:15:16;5.40;;;2.67;;
20365;SDS011;10341;49.894;8.822;2023-11-21T13:20:35;5.60;;;3.17;;
20365;SDS011;10341;49.894;8.822;2023-11-21T13:25:56;7.43;;;3.75;;
20365;SDS011;10341;49.894;8.822;2023-11-21T13:31:15;5.20;;;2.60;;
20365;SDS011;10341;49.894;8.822;2023-11-21T13:36:45;7.83;;;3.00;;
20365;SDS011;10341;49.894;8.822;2023-11-21T13:42:05;7.85;;;3.33;;
20365;SDS011;10341;49.894;8.822;2023-11-21T13:47:24;7.60;;;3.20;;
20365;SDS011;10341;49.894;8.822;2023-11-21T13:52:48;5.18;;;3.22;;
20365;SDS011;10341;49.894;8.822;2023-11-21T13:58:09;7.22;;;3.67;;
20365;SDS011;10341;49.894;8.822;2023-11-21T14:03:34;8.30;;;3.10;;
20365;SDS011;10341;49.894;8.822;2023-11-21T14:09:03;6.05;;;3.10;;
20365;SDS011;10341;49.894;8.822;2023-11-21T14:14:26;9.57;;;3.30;;
20365;SDS011;10341;49.894;8.822;2023-11-21T14:19:46;5.03;;;2.80;;
20365;SDS011;10341;49.894;8.822;2023-11-21T14:25:05;6.47;;;3.70;;
20365;SDS011;10341;49.894;8.822;2023-11-21T14:30:25;6.03;;;3.22;;
20365;SDS011;10341;49.894;8.822;2023-11-21T14:35:46;5.30;;;3.28;;
20365;SDS011;10341;49.894;8.822;2023-11-21T14:41:07;8.18;;;2.95;;
20365;SDS011;10341;49.894;8.822;2023-11-21T14:51:47;6.30;;;3.00;;
20365;SDS011;10341;49.894;8.822;2023-11-21T14:57:22;7.63;;;3.28;;
20365;SDS011;10341;49.894;8.822;2023-11-21T15:02:41;8.30;;;3.33;;
20365;SDS011;10341;49.894;8.822;2023-11-21T15:08:08;7.60;;;3.60;;
20365;SDS011;10341;49.894;8.822;2023-11-21T15:13:38;6.65;;;3.25;;
20365;SDS011;10341;49.894;8.822;2023-11-21T15:18:58;5.00;;;3.28;;
20365;SDS011;10341;49.894;8.822;2023-11-21T15:24:17;6.70;;;3.97;;
20365;SDS011;10341;49.894;8.822;2023-11-21T15:29:37;7.40;;;3.97;;
20365;SDS011;10341;49.894;8.822;2023-11-21T15:34:57;9.77;;;3.97;;
20365;SDS011;10341;49.894;8.822;2023-11-21T15:40:16;6.60;;;3.77;;
20365;SDS011;10341;49.894;8.822;2023-11-21T15:45:37;7.90;;;4.13;;
20365;SDS011;10341;49.894;8.822;2023-11-21T15:50:57;7.85;;;4.70;;
20365;SDS011;10341;49.894;8.822;2023-11-21T15:56:17;14.23;;;7.93;;
20365;SDS011;10341;49.894;8.822;2023-11-21T16:01:37;30.13;;;14.50;;
20365;SDS011;10341;49.894;8.822;2023-11-21T16:07:02;12.18;;;6.63;;
20365;SDS011;10341;49.894;8.822;2023-11-21T16:12:24;10.48;;;6.07;;
20365;SDS011;10341;49.894;8.822;2023-11-21T16:17:44;12.63;;;6.13;;
20365;SDS011;10341;49.894;8.822;2023-11-21T16:23:04;9.68;;;5.80;;
20365;SDS011;10341;49.894;8.822;2023-11-21T16:28:23;12.30;;;5.43;;
20365;SDS011;10341;49.894;8.822;2023-11-21T16:39:03;6.28;;;3.58;;
20365;SDS011;10341;49.894;8.822;2023-11-21T16:44:22;8.30;;;4.40;;
20365;SDS011;10341;49.894;8.822;2023-11-21T16:49:43;9.80;;;4.68;;
20365;SDS011;10341;49.894;8.822;2023-11-21T16:55:03;9.98;;;4.90;;
20365;SDS011;10341;49.894;8.822;2023-11-21T17:00:22;7.10;;;3.88;;
20365;SDS011;10341;49.894;8.822;2023-11-21T17:05:42;6.72;;;4.10;;
20365;SDS011;10341;49.894;8.822;2023-11-21T17:11:02;7.93;;;4.25;;
20365;SDS011;10341;49.894;8.822;2023-11-21T17:16:23;5.82;;;3.70;;
20365;SDS011;10341;49.894;8.822;2023-11-21T17:21:42;5.70;;;3.42;;
20365;SDS011;10341;49.894;8.822;2023-11-21T17:27:04;7.82;;;4.03;;
20365;SDS011;10341;49.894;8.822;2023-11-21T17:37:43;6.45;;;3.97;;
20365;SDS011;10341;49.894;8.822;2023-11-21T17:43:03;8.32;;;4.25;;
20365;SDS011;10341;49.894;8.822;2023-11-21T17:48:22;6.93;;;3.85;;
20365;SDS011;10341;49.894;8.822;2023-11-21T17:53:45;10.23;;;5.25;;
20365;SDS011;10341;49.894;8.822;2023-11-21T17:59:05;10.32;;;5.90;;
20365;SDS011;10341;49.894;8.822;2023-11-21T18:04:24;13.20;;;6.63;;
20365;SDS011;10341;49.894;8.822;2023-11-21T18:09:45;13.45;;;6.88;;
20365;SDS011;10341;49.894;8.822;2023-11-21T18:15:04;12.02;;;6.13;;
20365;SDS011;10341;49.894;8.822;2023-11-21T18:20:24;14.65;;;8.00;;
20365;SDS011;10341;49.894;8.822;2023-11-21T18:25:44;10.50;;;7.18;;
20365;SDS011;10341;49.894;8.822;2023-11-21T18:31:07;11.13;;;7.15;;
20365;SDS011;10341;49.894;8.822;2023-11-21T18:36:26;11.85;;;7.47;;
20365;SDS011;10341;49.894;8.822;2023-11-21T18:41:45;13.30;;;6.47;;
20365;SDS011;10341;49.894;8.822;2023-11-21T18:47:05;12.45;;;6.35;;
20365;SDS011;10341;49.894;8.822;2023-11-21T18:52:25;13.40;;;6.68;;
20365;SDS011;10341;49.894;8.822;2023-11-21T18:57:46;13.15;;;6.00;;
20365;SDS011;10341;49.894;8.822;2023-11-21T19:03:05;11.63;;;6.13;;
20365;SDS011;10341;49.894;8.822;2023-11-21T19:08:24;12.15;;;6.32;;
20365;SDS011;10341;49.894;8.822;2023-11-21T19:13:43;12.13;;;5.63;;
20365;SDS011;10341;49.894;8.822;2023-11-21T19:19:03;12.83;;;5.70;;
20365;SDS011;10341;49.894;8.822;2023-11-21T19:24:23;14.30;;;5.82;;
20365;SDS011;10341;49.894;8.822;2023-11-21T19:29:43;8.93;;;5.30;;
20365;SDS011;10341;49.894;8.822;2023-11-21T19:35:03;7.32;;;3.83;;
20365;SDS011;10341;49.894;8.822;2023-11-21T19:40:22;5.15;;;3.40;;
20365;SDS011;10341;49.894;8.822;2023-11-21T19:45:42;6.40;;;3.95;;
20365;SDS011;10341;49.894;8.822;2023-11-21T19:51:02;5.20;;;3.42;;
20365;SDS011;10341;49.894;8.822;2023-11-21T19:56:25;6.43;;;4.22;;
20365;SDS011;10341;49.894;8.822;2023-11-21T20:01:44;5.82;;;3.50;;
20365;SDS011;10341;49.894;8.822;2023-11-21T20:07:04;7.65;;;4.15;;
20365;SDS011;10341;49.894;8.822;2023-11-21T20:12:24;7.47;;;3.95;;
20365;SDS011;10341;49.894;8.822;2023-11-21T20:17:44;6.43;;;3.97;;
20365;SDS011;10341;49.894;8.822;2023-11-21T20:23:03;6.20;;;3.95;;
20365;SDS011;10341;49.894;8.822;2023-11-21T20:28:23;5.43;;;3.50;;
20365;SDS011;10341;49.894;8.822;2023-11-21T20:33:43;6.90;;;3.85;;
20365;SDS011;10341;49.894;8.822;2023-11-21T20:39:03;7.20;;;4.07;;
20365;SDS011;10341;49.894;8.822;2023-11-21T20:44:22;6.18;;;3.72;;
20365;SDS011;10341;49.894;8.822;2023-11-21T20:49:42;8.60;;;3.80;;
20365;SDS011;10341;49.894;8.822;2023-11-21T20:55:02;5.18;;;3.10;;
20365;SDS011;10341;49.894;8.822;2023-11-21T21:00:22;4.30;;;2.70;;
20365;SDS011;10341;49.894;8.822;2023-11-21T21:05:44;6.03;;;2.85;;
20365;SDS011;10341;49.894;8.822;2023-11-21T21:11:05;4.65;;;2.50;;
20365;SDS011;10341;49.894;8.822;2023-11-21T21:16:26;2.60;;;1.95;;
20365;SDS011;10341;49.894;8.822;2023-11-21T21:21:46;3.35;;;2.38;;
20365;SDS011;10341;49.894;8.822;2023-11-21T21:27:05;3.13;;;1.90;;
20365;SDS011;10341;49.894;8.822;2023-11-21T21:32:25;3.03;;;2.22;;
20365;SDS011;10341;49.894;8.822;2023-11-21T21:37:44;4.47;;;2.28;;
20365;SDS011;10341;49.894;8.822;2023-11-21T21:43:04;3.63;;;2.57;;
20365;SDS011;10341;49.894;8.822;2023-11-21T21:48:24;4.10;;;2.60;;
20365;SDS011;10341;49.894;8.822;2023-11-21T21:53:44;4.55;;;2.60;;
20365;SDS011;10341;49.894;8.822;2023-11-21T21:59:04;6.65;;;3.40;;
20365;SDS011;10341;49.894;8.822;2023-11-21T22:04:25;3.65;;;2.65;;
20365;SDS011;10341;49.894;8.822;2023-11-21T22:09:45;3.85;;;2.78;;
20365;SDS011;10341;49.894;8.822;2023-11-21T22:15:05;4.90;;;3.17;;
20365;SDS011;10341;49.894;8.822;2023-11-21T22:20:25;4.13;;;2.80;;
20365;SDS011;10341;49.894;8.822;2023-11-21T22:25:45;8.15;;;3.05;;
20365;SDS011;10341;49.894;8.822;2023-11-21T22:31:05;5.35;;;3.10;;
20365;SDS011;10341;49.894;8.822;2023-11-21T22:36:25;5.20;;;3.08;;
20365;SDS011;10341;49.894;8.822;2023-11-21T22:41:45;4.30;;;3.00;;
20365;SDS011;10341;49.894;8.822;2023-11-21T22:47:05;8.63;;;3.17;;
20365;SDS011;10341;49.894;8.822;2023-11-21T22:52:24;3.97;;;2.90;;
20365;SDS011;10341;49.894;8.822;2023-11-21T22:57:45;3.95;;;1.95;;
20365;SDS011;10341;49.894;8.822;2023-11-21T23:03:04;4.45;;;2.30;;
20365;SDS011;10341;49.894;8.822;2023-11-21T23:08:24;3.83;;;2.60;;
20365;SDS011;10341;49.894;8.822;2023-11-21T23:13:44;3.88;;;2.75;;
20365;SDS011;10341;49.894;8.822;2023-11-21T23:19:04;5.40;;;2.75;;
20365;SDS011;10341;49.894;8.822;2023-11-21T23:24:23;3.33;;;2.65;;
20365;SDS011;10341;49.894;8.822;2023-11-21T23:29:42;4.53;;;3.00;;
20365;SDS011;10341;49.894;8.822;2023-11-21T23:35:05;5.75;;;3.10;;
20365;SDS011;10341;49.894;8.822;2023-11-21T23:40:25;3.95;;;2.78;;
20365;SDS011;10341;49.894;8.822;2023-11-21T23:45:44;4.15;;;2.70;;
20365;SDS011;10341;49.894;8.822;2023-11-21T23:51:03;4.60;;;3.25;;
20365;SDS011;10341;49.894;8.822;2023-11-21T23:56:23;4.68;;;3.20;;
